Time;durP1;ratioP1;P1;durP2;ratioP2;P2;SDS_P1;SDS_P2;PMS_P1;PMS_P2;Temp;Humidity;BMP_temperature;BMP_pressure;BME280_temperature;BME280_humidity;BME280_pressure;Samples;Min_cycle;Max_cycle;Signal;HPM_P1;HPM_P2
2023/04/06 00:00:45;;;;;;;;;3.25;3.25;;;;;22.64;31.89;101155.88;5081892;27;45646;-64
2023/04/06 00:03:11;;;;;;;;;4.75;4.75;;;;;22.63;32.05;101154.19;5093903;27;45284;-65
2023/04/06 00:05:36;;;;;;;;;7.00;4.25;;;;;22.62;32.26;101140.97;5096221;27;45819;-65
2023/04/06 00:08:02;;;;;;;;;4.50;4.25;;;;;22.56;32.25;101132.44;5093557;27;52628;-65
2023/04/06 00:10:27;;;;;;;;;3.25;3.25;;;;;22.62;32.11;101138.28;5072336;27;47834;-64
2023/04/06 00:12:53;;;;;;;;;7.75;4.25;;;;;22.63;32.44;101137.31;5096122;27;45422;-64
2023/04/06 00:15:19;;;;;;;;;3.25;3.00;;;;;22.61;32.14;101133.91;5072034;27;45426;-65
2023/04/06 00:17:44;;;;;;;;;6.25;4.25;;;;;22.61;32.16;101140.13;5085464;27;45677;-65
2023/04/06 00:20:10;;;;;;;;;3.75;3.75;;;;;22.61;32.28;101139.25;5072108;27;59765;-65
2023/04/06 00:22:35;;;;;;;;;7.75;4.00;;;;;22.61;32.38;101142.78;5073745;27;45645;-65
2023/04/06 00:25:01;;;;;;;;;7.00;5.00;;;;;22.59;31.89;101128.69;5060181;27;45965;-64
2023/04/06 00:27:26;;;;;;;;;5.75;4.00;;;;;22.61;32.28;101137.44;5074316;27;45758;-65
2023/04/06 00:29:52;;;;;;;;;4.50;4.25;;;;;22.60;32.32;101127.72;5064117;27;45756;-65
2023/04/06 00:32:17;;;;;;;;;4.25;4.25;;;;;22.60;32.06;101129.56;5074963;27;45362;-65
2023/04/06 00:34:42;;;;;;;;;4.75;3.00;;;;;22.61;32.22;101128.56;5089628;27;56061;-65
2023/04/06 00:37:08;;;;;;;;;5.25;3.75;;;;;22.61;32.24;101128.56;5084087;27;48073;-65
2023/04/06 00:39:33;;;;;;;;;5.00;3.25;;;;;22.61;32.38;101117.91;5063721;27;62093;-65
2023/04/06 00:42:00;;;;;;;;;4.25;3.50;;;;;22.56;31.95;101116.44;5074736;27;45414;-65
2023/04/06 00:44:25;;;;;;;;;3.00;3.00;;;;;22.59;32.59;101119.84;5065818;27;45244;-65
2023/04/06 00:46:50;;;;;;;;;5.00;5.00;;;;;22.59;32.63;101111.81;5074827;27;45486;-65
2023/04/06 00:49:16;;;;;;;;;3.50;3.50;;;;;22.59;32.08;101119.84;5064950;27;46502;-65
2023/04/06 00:51:42;;;;;;;;;5.00;5.00;;;;;22.58;32.54;101110.97;5059331;28;45774;-65
2023/04/06 00:54:07;;;;;;;;;5.00;4.00;;;;;22.60;32.23;101111.72;5081756;27;45462;-66
2023/04/06 00:56:33;;;;;;;;;6.00;5.00;;;;;22.58;31.99;101107.47;5071300;27;45766;-65
2023/04/06 00:58:58;;;;;;;;;4.25;4.25;;;;;22.59;32.44;101101.16;5053628;27;47084;-65
2023/04/06 01:01:24;;;;;;;;;5.00;3.00;;;;;22.58;32.11;101088.81;5091493;27;50184;-65
2023/04/06 01:03:50;;;;;;;;;5.00;4.00;;;;;22.60;32.25;101100.22;5081298;27;45508;-65
2023/04/06 01:06:16;;;;;;;;;4.25;3.25;;;;;22.59;32.14;101091.34;5057362;27;45374;-65
2023/04/06 01:08:41;;;;;;;;;4.50;4.00;;;;;22.50;32.35;101074.19;5064187;27;45347;-65
2023/04/06 01:11:06;;;;;;;;;7.50;4.25;;;;;22.60;32.31;101094.88;5065312;28;45360;-65
2023/04/06 01:13:32;;;;;;;;;8.00;6.00;;;;;22.60;32.25;101084.19;5080226;27;45276;-65
2023/04/06 01:15:57;;;;;;;;;3.50;3.50;;;;;22.57;32.01;101079.94;5076629;27;45419;-65
2023/04/06 01:18:29;;;;;;;;;3.50;3.25;;;;;22.60;32.45;101086.88;5073506;27;49447;-65
2023/04/06 01:20:55;;;;;;;;;6.25;3.00;;;;;22.57;32.16;101082.59;5057235;27;47239;-65
2023/04/06 01:23:20;;;;;;;;;4.25;4.25;;;;;22.60;32.53;101086.88;5070508;27;45491;-65
2023/04/06 01:25:46;;;;;;;;;4.25;4.25;;;;;22.58;32.27;101076.31;5083780;27;47132;-65
2023/04/06 01:28:11;;;;;;;;;6.00;4.25;;;;;22.59;32.23;101088.66;5083248;27;48122;-65
2023/04/06 01:30:36;;;;;;;;;4.25;3.75;;;;;22.57;32.33;101082.59;5070267;28;59124;-65
2023/04/06 01:33:02;;;;;;;;;7.00;4.00;;;;;22.58;32.50;101078.13;5065147;27;45239;-65
2023/04/06 01:35:28;;;;;;;;;7.00;4.25;;;;;22.60;32.55;101081.53;5059561;27;45617;-65
2023/04/06 01:37:53;;;;;;;;;6.00;5.00;;;;;22.59;32.74;101078.00;5071206;28;45480;-65
2023/04/06 01:40:19;;;;;;;;;6.25;5.00;;;;;22.57;32.56;101077.25;5063636;27;45301;-65
2023/04/06 01:42:45;;;;;;;;;4.25;2.50;;;;;22.57;32.43;101074.59;5043848;27;45518;-65
2023/04/06 01:45:10;;;;;;;;;5.00;5.00;;;;;22.57;32.43;101077.25;5061806;27;45431;-66
2023/04/06 01:47:35;;;;;;;;;4.25;4.25;;;;;22.56;32.28;101065.75;5091745;27;63618;-65
2023/04/06 01:50:02;;;;;;;;;4.25;4.25;;;;;22.60;32.42;101076.19;5063806;28;62348;-65
2023/04/06 01:52:29;;;;;;;;;6.25;4.25;;;;;22.60;32.66;101060.19;5063550;28;45439;-65
2023/04/06 01:54:54;;;;;;;;;3.50;3.25;;;;;22.59;32.62;101059.31;5061624;27;51356;-65
2023/04/06 01:57:20;;;;;;;;;5.50;3.50;;;;;22.57;32.27;101050.59;5087551;27;45889;-65
2023/04/06 01:59:45;;;;;;;;;6.00;4.00;;;;;22.58;32.37;101057.63;5059125;27;45466;-65
2023/04/06 02:02:12;;;;;;;;;5.25;4.75;;;;;22.58;31.99;101049.63;5073761;27;55609;-65
2023/04/06 02:04:38;;;;;;;;;6.00;5.25;;;;;22.59;32.64;101058.47;5091044;27;45314;-65
2023/04/06 02:07:03;;;;;;;;;6.50;5.00;;;;;22.55;32.25;101050.69;5059734;27;46762;-65
2023/04/06 02:09:29;;;;;;;;;3.75;3.75;;;;;22.58;32.61;101062.97;5069335;28;45182;-65
2023/04/06 02:11:55;;;;;;;;;5.75;4.75;;;;;22.58;32.26;101056.78;5062667;27;45519;-65
2023/04/06 02:14:20;;;;;;;;;5.00;4.00;;;;;22.58;32.50;101056.78;5066504;28;45561;-65
2023/04/06 02:16:46;;;;;;;;;6.00;5.25;;;;;22.55;32.79;101052.50;5053847;27;48001;-65
2023/04/06 02:19:11;;;;;;;;;5.25;4.75;;;;;22.59;32.09;101061.16;5063804;28;45414;-65
2023/04/06 02:21:37;;;;;;;;;8.50;5.25;;;;;22.59;32.46;101050.47;5091077;27;52005;-65
2023/04/06 02:24:02;;;;;;;;;6.00;3.75;;;;;22.58;32.65;101051.47;5075712;28;45470;-65
2023/04/06 02:26:27;;;;;;;;;5.75;4.75;;;;;22.56;32.13;101041.75;5087574;27;64120;-65
2023/04/06 02:28:53;;;;;;;;;6.00;4.00;;;;;22.57;32.09;101042.59;5068742;27;53551;-65
2023/04/06 02:31:18;;;;;;;;;4.50;3.50;;;;;22.57;32.54;101034.59;5096475;27;49385;-65
2023/04/06 02:33:43;;;;;;;;;3.75;3.75;;;;;22.55;32.41;101029.34;5065492;27;52902;-66
2023/04/06 02:36:09;;;;;;;;;5.50;3.50;;;;;22.56;32.25;101030.22;5086987;27;61178;-66
2023/04/06 02:38:34;;;;;;;;;8.50;5.50;;;;;22.55;32.32;101021.34;5094526;27;45426;-66
2023/04/06 02:41:00;;;;;;;;;3.25;3.25;;;;;22.56;32.11;101020.41;5083989;27;45245;-66
2023/04/06 02:43:25;;;;;;;;;5.50;4.50;;;;;22.54;32.39;101021.47;5087354;27;45476;-66
2023/04/06 02:45:50;;;;;;;;;7.50;5.00;;;;;22.56;32.61;101022.22;5075902;27;62905;-65
2023/04/06 02:48:16;;;;;;;;;5.00;4.00;;;;;22.52;32.45;101008.25;5091293;27;45473;-65
2023/04/06 02:50:41;;;;;;;;;6.50;3.25;;;;;22.55;32.62;101017.84;5088931;27;45386;-65
2023/04/06 02:53:06;;;;;;;;;4.25;4.25;;;;;22.56;32.23;101009.72;5075958;27;45596;-65
2023/04/06 02:55:32;;;;;;;;;4.00;4.00;;;;;22.55;32.45;101013.34;5061283;27;57352;-65
2023/04/06 02:57:57;;;;;;;;;4.25;3.50;;;;;22.55;32.76;101017.84;5089214;27;59610;-65
2023/04/06 03:00:22;;;;;;;;;5.25;4.00;;;;;22.55;32.27;101021.34;5066535;27;56550;-65
2023/04/06 03:02:48;;;;;;;;;4.00;4.00;;;;;22.55;32.54;101025.84;5072545;27;55104;-65
2023/04/06 03:05:13;;;;;;;;;5.50;5.00;;;;;22.57;32.24;101037.25;5075532;27;54563;-65
2023/04/06 03:07:38;;;;;;;;;5.25;5.00;;;;;22.54;32.21;101029.47;5094250;27;45304;-65
2023/04/06 03:10:04;;;;;;;;;4.00;3.75;;;;;22.56;32.68;101028.41;5062534;28;52685;-65
2023/04/06 03:12:30;;;;;;;;;4.75;4.75;;;;;22.54;32.77;101027.66;5068434;27;45454;-65
2023/04/06 03:14:55;;;;;;;;;4.25;4.25;;;;;22.53;32.41;101041.94;5064238;27;62639;-65
2023/04/06 03:17:20;;;;;;;;;5.75;4.00;;;;;22.55;32.42;101039.19;5068805;27;45454;-66
2023/04/06 03:19:46;;;;;;;;;5.25;3.50;;;;;22.54;32.32;101019.66;5072007;28;47426;-65
2023/04/06 03:22:11;;;;;;;;;3.75;3.50;;;;;22.51;32.18;101022.53;5085463;27;45516;-65
2023/04/06 03:24:36;;;;;;;;;4.75;4.25;;;;;22.54;32.79;101024.13;5069004;27;50432;-66
2023/04/06 03:27:02;;;;;;;;;5.50;4.50;;;;;22.55;32.55;101017.84;5069260;27;57133;-65
2023/04/06 03:29:27;;;;;;;;;5.75;4.75;;;;;22.54;32.24;101017.00;5089625;27;45818;-65
2023/04/06 03:31:52;;;;;;;;;6.00;4.25;;;;;22.55;32.48;101020.50;5078882;27;64220;-65
2023/04/06 03:34:18;;;;;;;;;3.75;3.75;;;;;22.54;32.67;101029.47;5094820;27;66032;-66
2023/04/06 03:36:43;;;;;;;;;4.25;3.25;;;;;22.52;32.80;101024.25;5063194;27;58484;-66
2023/04/06 03:39:08;;;;;;;;;6.00;3.75;;;;;22.53;32.59;101025.09;5077998;27;45262;-66
2023/04/06 03:41:34;;;;;;;;;3.50;3.00;;;;;22.53;32.20;101020.63;5083502;27;55612;-65
2023/04/06 03:43:59;;;;;;;;;4.25;4.00;;;;;22.54;32.80;101013.47;5076789;27;54331;-65
2023/04/06 03:46:25;;;;;;;;;3.00;3.00;;;;;22.52;32.49;101010.06;5088755;27;45505;-65
2023/04/06 03:48:50;;;;;;;;;5.75;4.25;;;;;22.54;32.77;101005.44;5074600;27;45690;-65
2023/04/06 03:51:15;;;;;;;;;4.00;4.00;;;;;22.54;32.61;101005.44;5074472;27;46931;-66
2023/04/06 03:53:40;;;;;;;;;3.00;3.00;;;;;22.54;32.41;101019.66;5100373;27;55092;-65
2023/04/06 03:56:06;;;;;;;;;5.00;5.00;;;;;22.53;32.93;101014.44;5090044;27;54193;-65
2023/04/06 03:58:31;;;;;;;;;3.25;3.25;;;;;22.53;32.27;101009.94;5063268;27;45296;-65
2023/04/06 04:00:57;;;;;;;;;5.00;3.25;;;;;22.52;32.59;101012.72;5090496;27;45415;-65
2023/04/06 04:03:23;;;;;;;;;3.25;3.25;;;;;22.54;32.25;101016.13;5079001;27;63273;-65
2023/04/06 04:05:49;;;;;;;;;6.00;3.75;;;;;22.54;32.85;101010.78;5076361;27;45940;-65
2023/04/06 04:08:15;;;;;;;;;4.00;3.25;;;;;22.54;32.80;101010.78;5078613;27;45465;-65
2023/04/06 04:10:40;;;;;;;;;4.25;3.00;;;;;22.53;32.79;101009.94;5056833;27;45807;-65
2023/04/06 04:13:06;;;;;;;;;5.50;5.25;;;;;22.53;32.38;101017.94;5090562;27;46692;-65
2023/04/06 04:15:31;;;;;;;;;3.25;3.25;;;;;22.53;32.87;101015.28;5065814;27;54680;-65
2023/04/06 04:17:56;;;;;;;;;5.25;4.50;;;;;22.54;32.31;101018.78;5061808;27;58821;-65
2023/04/06 04:20:22;;;;;;;;;3.50;3.25;;;;;22.52;32.36;101010.94;5064531;27;63548;-65
2023/04/06 04:22:47;;;;;;;;;3.50;3.50;;;;;22.53;32.18;101023.28;5100121;27;45483;-65
2023/04/06 04:25:13;;;;;;;;;3.00;3.00;;;;;22.54;32.21;101016.13;5056053;27;64067;-65
2023/04/06 04:27:38;;;;;;;;;4.25;4.00;;;;;22.51;32.57;101013.72;5095526;27;45421;-65
2023/04/06 04:30:04;;;;;;;;;4.00;4.00;;;;;22.50;32.23;101007.50;5091891;27;62109;-65
2023/04/06 04:32:30;;;;;;;;;3.00;2.25;;;;;22.52;32.40;100992.25;5053724;27;45486;-66
2023/04/06 04:34:55;;;;;;;;;4.00;4.00;;;;;22.53;32.31;100991.28;5076352;27;45550;-66
2023/04/06 04:37:20;;;;;;;;;3.75;2.25;;;;;22.51;32.13;101003.03;5063364;27;54579;-65
2023/04/06 04:39:46;;;;;;;;;3.00;2.75;;;;;22.51;32.60;101003.03;5064413;27;62657;-65
2023/04/06 04:42:11;;;;;;;;;3.25;3.00;;;;;22.46;32.53;100997.19;5075635;27;66286;-65
2023/04/06 04:44:37;;;;;;;;;0.00;0.00;;;;;22.51;32.25;101006.53;5052474;27;45375;-65
2023/04/06 04:47:02;;;;;;;;;4.75;2.50;;;;;22.50;32.54;100998.66;5097781;27;59085;-65
2023/04/06 04:49:27;;;;;;;;;5.25;3.25;;;;;22.51;32.55;101000.38;5071776;27;45509;-66
2023/04/06 04:51:53;;;;;;;;;4.00;3.25;;;;;22.50;32.82;101001.31;5090459;27;46854;-66
2023/04/06 04:54:19;;;;;;;;;6.75;4.00;;;;;22.51;32.71;101003.88;5070879;27;45266;-66
2023/04/06 04:56:45;;;;;;;;;2.75;2.75;;;;;22.50;32.43;100995.97;5099956;27;45300;-66
2023/04/06 04:59:10;;;;;;;;;4.00;2.75;;;;;22.50;32.84;101003.97;5059851;27;45449;-65
2023/04/06 05:01:35;;;;;;;;;3.00;3.00;;;;;22.50;32.44;101009.31;5071322;27;65149;-65
2023/04/06 05:04:01;;;;;;;;;3.50;2.50;;;;;22.50;32.37;101020.81;5059003;28;63153;-65
2023/04/06 05:06:26;;;;;;;;;4.25;3.75;;;;;22.44;32.53;101005.28;5059406;28;48870;-65
2023/04/06 05:08:51;;;;;;;;;2.75;2.75;;;;;22.50;32.50;101018.16;5090520;27;62770;-65
2023/04/06 05:11:17;;;;;;;;;3.25;3.25;;;;;22.50;32.52;101020.81;5070090;27;59664;-65
2023/04/06 05:13:42;;;;;;;;;3.50;3.25;;;;;22.50;32.49;101028.00;5070961;27;58996;-65
2023/04/06 05:16:07;;;;;;;;;4.25;4.00;;;;;22.48;32.75;101027.25;5064078;27;45400;-65
2023/04/06 05:18:33;;;;;;;;;3.25;3.25;;;;;22.49;32.89;101031.63;5068810;27;49553;-65
2023/04/06 05:20:58;;;;;;;;;2.50;2.50;;;;;22.48;32.85;101033.44;5070955;28;45451;-65
2023/04/06 05:23:24;;;;;;;;;2.50;2.50;;;;;22.51;32.64;101033.22;5061009;28;62263;-65
2023/04/06 05:25:49;;;;;;;;;3.00;3.00;;;;;22.50;32.66;101030.66;5085021;27;45664;-65
2023/04/06 05:28:15;;;;;;;;;5.75;4.25;;;;;22.48;32.83;101029.91;5075063;27;56813;-66
2023/04/06 05:30:42;;;;;;;;;4.25;3.25;;;;;22.51;32.45;101038.56;5061345;27;46119;-65
2023/04/06 05:33:08;;;;;;;;;4.00;3.00;;;;;22.50;32.66;101034.16;5069669;27;45327;-65
2023/04/06 05:35:33;;;;;;;;;2.25;2.25;;;;;22.47;32.61;101045.09;5067752;27;45379;-65
2023/04/06 05:37:59;;;;;;;;;10.50;9.75;;;;;22.47;32.18;101033.53;5062164;27;45378;-66
2023/04/06 05:40:24;;;;;;;;;8.00;8.00;;;;;22.42;32.55;101023.22;5060343;27;48209;-67
2023/04/06 05:42:50;;;;;;;;;10.50;9.50;;;;;22.44;32.66;101031.13;5073220;27;51472;-66
2023/04/06 05:45:16;;;;;;;;;9.25;9.00;;;;;22.37;32.13;101036.88;5077118;27;45670;-68
2023/04/06 05:47:43;;;;;;;;;9.25;8.50;;;;;22.37;32.25;101044.88;5061362;28;45355;-69
2023/04/06 05:50:09;;;;;;;;;14.00;12.50;;;;;22.31;31.70;101039.13;5057627;27;47185;-73
2023/04/06 05:52:34;;;;;;;;;15.00;11.50;;;;;22.29;31.91;101047.25;5061520;28;45627;-70
2023/04/06 05:55:00;;;;;;;;;12.50;9.25;;;;;22.26;32.12;101044.78;5072112;27;45392;-73
2023/04/06 05:57:25;;;;;;;;;12.25;11.25;;;;;22.19;32.12;101032.84;5051312;27;45502;-73
2023/04/06 05:59:51;;;;;;;;;14.00;11.25;;;;;22.18;31.75;101023.97;5083707;27;46464;-74
2023/04/06 06:02:16;;;;;;;;;15.00;12.00;;;;;22.14;31.57;101042.97;5076153;28;45260;-74
2023/04/06 06:04:41;;;;;;;;;17.25;12.75;;;;;22.13;31.87;101051.91;5054518;27;61481;-72
2023/04/06 06:07:07;;;;;;;;;17.00;13.00;;;;;22.04;32.12;101047.25;5072249;27;57597;-71
2023/04/06 06:09:32;;;;;;;;;18.50;14.50;;;;;22.04;31.93;101049.91;5088115;27;53214;-71
2023/04/06 06:11:59;;;;;;;;;13.00;10.00;;;;;21.97;31.60;101042.38;5073975;27;58380;-72
2023/04/06 06:14:24;;;;;;;;;14.50;10.25;;;;;21.96;31.78;101040.66;5072018;27;45411;-68
2023/04/06 06:16:50;;;;;;;;;13.00;11.00;;;;;21.95;31.51;101051.41;5061032;28;45591;-69
2023/04/06 06:19:15;;;;;;;;;10.00;10.00;;;;;21.95;31.76;101046.91;5074757;27;60061;-69
2023/04/06 06:21:40;;;;;;;;;15.50;12.75;;;;;21.91;31.75;101042.78;5089056;27;56483;-69
2023/04/06 06:24:07;;;;;;;;;13.50;10.75;;;;;21.92;31.49;101048.94;5052679;28;45320;-68
2023/04/06 06:26:32;;;;;;;;;12.00;10.75;;;;;21.89;31.84;101036.72;5072277;27;45505;-65
2023/04/06 06:28:58;;;;;;;;;11.50;9.50;;;;;21.89;31.56;101034.03;5066580;27;47030;-66
2023/04/06 06:31:24;;;;;;;;;9.50;9.50;;;;;21.84;31.37;101036.16;5075217;27;61330;-66
2023/04/06 06:33:51;;;;;;;;;11.25;6.50;;;;;21.89;31.42;101039.38;5054794;28;45464;-66
2023/04/06 06:36:17;;;;;;;;;8.00;7.75;;;;;21.92;31.72;101030.28;5090089;27;45605;-68
2023/04/06 06:38:42;;;;;;;;;8.75;7.50;;;;;21.92;31.83;101033.84;5045154;27;48082;-65
2023/04/06 06:41:08;;;;;;;;;6.25;6.25;;;;;21.93;31.67;101030.19;5071531;27;45214;-68
2023/04/06 06:43:33;;;;;;;;;6.00;6.00;;;;;21.93;31.92;101027.53;5066831;27;59181;-68
2023/04/06 06:45:58;;;;;;;;;6.50;5.00;;;;;21.97;31.56;101030.81;5071768;27;45459;-71
2023/04/06 06:48:24;;;;;;;;;6.50;6.00;;;;;21.97;31.73;101025.50;5092075;27;53340;-71
2023/04/06 06:50:50;;;;;;;;;5.75;5.25;;;;;22.02;31.67;101036.69;5072730;27;45474;-70
2023/04/06 06:53:15;;;;;;;;;5.75;5.00;;;;;22.04;31.97;101032.09;5060894;28;45324;-65
2023/04/06 06:55:40;;;;;;;;;10.00;6.00;;;;;22.07;32.25;101023.06;5085319;27;56080;-66
2023/04/06 06:58:06;;;;;;;;;6.50;6.00;;;;;22.11;32.16;101024.53;5057868;27;47883;-64
2023/04/06 07:00:32;;;;;;;;;7.75;6.00;;;;;22.13;32.45;101017.28;5076005;27;47431;-67
2023/04/06 07:02:57;;;;;;;;;6.00;5.00;;;;;22.18;32.29;101021.31;5062261;27;45494;-68
2023/04/06 07:05:22;;;;;;;;;7.75;4.00;;;;;22.17;32.36;101016.94;5073537;27;45492;-65
2023/04/06 07:07:48;;;;;;;;;5.25;5.00;;;;;22.23;32.27;101023.66;5091291;27;52219;-63
2023/04/06 07:10:13;;;;;;;;;6.25;4.25;;;;;22.24;32.03;101022.72;5088916;27;59902;-63
2023/04/06 07:12:39;;;;;;;;;5.00;3.75;;;;;22.29;32.36;101025.94;5084254;27;45417;-65
2023/04/06 07:15:05;;;;;;;;;4.00;4.00;;;;;22.30;32.48;101019.63;5070365;27;45502;-66
2023/04/06 07:17:30;;;;;;;;;9.00;6.00;;;;;22.35;32.58;101025.47;5063580;27;46506;-67
2023/04/06 07:19:56;;;;;;;;;5.25;4.00;;;;;22.39;32.32;101020.78;5060887;27;45656;-65
2023/04/06 07:22:21;;;;;;;;;5.25;5.00;;;;;22.39;32.78;101018.09;5086698;27;45517;-64
2023/04/06 07:24:46;;;;;;;;;7.00;5.00;;;;;22.43;32.94;101022.25;5091391;27;65127;-64
2023/04/06 07:27:12;;;;;;;;;5.50;4.50;;;;;22.44;32.54;101023.97;5067363;27;48551;-65
2023/04/06 07:29:37;;;;;;;;;5.00;5.00;;;;;22.48;32.92;101019.25;5055988;28;45447;-65
2023/04/06 07:32:02;;;;;;;;;4.75;3.25;;;;;22.50;33.01;101015.50;5066287;27;45325;-67
2023/04/06 07:34:31;;;;;;;;;5.75;4.75;;;;;22.51;33.06;101019.88;5066599;27;45430;-68
2023/04/06 07:36:56;;;;;;;;;4.25;4.25;;;;;22.55;32.79;101012.50;5087916;27;50212;-64
2023/04/06 07:39:22;;;;;;;;;3.75;3.50;;;;;22.60;32.84;101028.19;5086840;27;64329;-66
2023/04/06 07:41:47;;;;;;;;;3.25;2.25;;;;;22.62;33.12;101026.25;5070210;27;45327;-66
2023/04/06 07:44:12;;;;;;;;;3.00;3.00;;;;;22.64;32.73;101027.00;5065368;28;50072;-65
2023/04/06 07:46:38;;;;;;;;;5.50;2.75;;;;;22.66;32.96;101027.72;5085001;27;46230;-62
2023/04/06 07:49:03;;;;;;;;;7.25;3.25;;;;;22.65;33.09;101020.69;5065733;27;47465;-66
2023/04/06 07:51:29;;;;;;;;;5.50;3.00;;;;;22.69;33.20;101025.69;5065816;27;45473;-65
2023/04/06 07:53:54;;;;;;;;;3.75;3.25;;;;;22.71;32.95;101029.09;5075291;27;45581;-69
2023/04/06 07:56:20;;;;;;;;;4.50;4.00;;;;;22.71;33.02;101026.41;5059939;28;47031;-65
2023/04/06 07:58:46;;;;;;;;;5.00;3.25;;;;;22.76;33.01;101034.09;5062541;27;45922;-65
2023/04/06 08:01:11;;;;;;;;;5.00;2.75;;;;;22.77;32.73;101026.94;5080869;27;45330;-65
2023/04/06 08:03:36;;;;;;;;;3.50;2.25;;;;;22.77;32.58;101022.47;5067659;27;45225;-64
2023/04/06 08:06:02;;;;;;;;;4.75;3.50;;;;;22.75;32.97;101014.56;5070753;27;58811;-66
2023/04/06 08:08:28;;;;;;;;;6.25;4.75;;;;;22.77;33.06;101013.59;5068837;27;45241;-65
2023/04/06 08:10:53;;;;;;;;;6.50;3.25;;;;;22.80;32.88;101016.88;5080744;27;45257;-70
2023/04/06 08:13:19;;;;;;;;;5.25;5.00;;;;;22.79;32.69;101017.88;5066709;27;64533;-69
2023/04/06 08:15:45;;;;;;;;;4.75;4.00;;;;;22.80;33.18;101024.88;5099744;27;45424;-70
2023/04/06 08:18:10;;;;;;;;;4.00;4.00;;;;;22.80;32.94;101019.53;5083772;27;45389;-67
2023/04/06 08:20:36;;;;;;;;;5.50;5.50;;;;;22.81;32.83;101015.94;5074700;28;45410;-69
2023/04/06 08:23:01;;;;;;;;;4.00;3.75;;;;;22.83;32.79;101014.00;5068782;27;45527;-66
2023/04/06 08:25:27;;;;;;;;;4.25;2.75;;;;;22.83;33.01;101027.34;5079741;27;45448;-67
2023/04/06 08:27:52;;;;;;;;;5.25;3.25;;;;;22.85;32.91;101024.56;5078322;27;45423;-66
2023/04/06 08:30:19;;;;;;;;;6.00;4.25;;;;;22.85;33.34;101020.06;5072450;27;45359;-65
2023/04/06 08:32:47;;;;;;;;;4.25;3.50;;;;;22.85;33.26;101028.06;5057303;28;45513;-67
2023/04/06 08:35:12;;;;;;;;;2.75;2.75;;;;;22.87;33.01;101026.13;5071498;27;47382;-74
2023/04/06 08:37:38;;;;;;;;;5.00;4.25;;;;;22.91;33.19;101032.09;5061245;28;46023;-71
2023/04/06 08:40:04;;;;;;;;;3.75;3.75;;;;;22.91;33.19;101029.41;5093550;27;59101;-67
2023/04/06 08:42:32;;;;;;;;;4.25;4.00;;;;;22.94;33.49;101031.88;5069747;27;45584;-69
2023/04/06 08:44:58;;;;;;;;;4.50;4.50;;;;;22.98;33.23;101036.00;5078596;27;45567;-66
2023/04/06 08:47:23;;;;;;;;;5.00;3.50;;;;;22.97;33.29;101037.00;5069883;27;45387;-66
2023/04/06 08:49:48;;;;;;;;;7.00;4.25;;;;;23.00;33.35;101035.91;5079964;27;56514;-66
2023/04/06 08:52:17;;;;;;;;;4.00;3.75;;;;;23.01;33.55;101048.28;5076066;28;45560;-65
2023/04/06 08:54:43;;;;;;;;;3.00;3.00;;;;;23.02;33.39;101048.19;5067545;27;45639;-65
2023/04/06 08:57:08;;;;;;;;;4.25;3.50;;;;;23.03;33.39;101049.88;5076046;27;58116;-66
2023/04/06 08:59:34;;;;;;;;;4.75;4.75;;;;;23.03;33.17;101049.88;5067977;27;45437;-67
2023/04/06 09:02:03;;;;;;;;;5.00;4.50;;;;;23.07;33.12;101061.19;5068324;27;45456;-66
2023/04/06 09:04:28;;;;;;;;;5.00;4.75;;;;;23.08;33.44;101060.25;5087851;27;45445;-68
2023/04/06 09:06:54;;;;;;;;;3.25;3.25;;;;;23.07;33.33;101053.19;5074157;27;50865;-67
2023/04/06 09:09:20;;;;;;;;;3.25;3.25;;;;;23.09;33.37;101045.94;5079795;27;45319;-66
2023/04/06 09:11:50;;;;;;;;;5.00;3.00;;;;;23.09;33.53;101040.59;5068541;27;45613;-66
2023/04/06 09:14:16;;;;;;;;;6.00;4.50;;;;;23.10;33.42;101042.28;5078262;27;45441;-66
2023/04/06 09:16:45;;;;;;;;;6.75;5.75;;;;;23.11;33.06;101044.00;5096965;27;45461;-66
2023/04/06 09:19:11;;;;;;;;;5.50;4.00;;;;;23.07;33.15;101048.72;5062612;27;45466;-73
2023/04/06 09:21:37;;;;;;;;;6.50;4.75;;;;;23.12;33.06;101051.91;5091802;27;45437;-74
2023/04/06 09:24:03;;;;;;;;;5.50;4.25;;;;;23.12;33.44;101057.25;5068504;27;46454;-72
2023/04/06 09:26:29;;;;;;;;;8.75;6.25;;;;;23.13;33.13;101058.94;5072255;27;45589;-66
2023/04/06 09:28:55;;;;;;;;;5.00;3.50;;;;;23.11;33.18;101055.53;5066679;28;45325;-66
2023/04/06 09:31:26;;;;;;;;;4.25;4.25;;;;;23.15;33.32;101061.47;5066277;27;45230;-65
2023/04/06 09:33:52;;;;;;;;;7.25;6.75;;;;;23.15;32.88;101055.31;5094395;27;45720;-65
2023/04/06 09:36:17;;;;;;;;;7.50;5.75;;;;;23.14;33.08;101057.09;5088920;27;45635;-64
2023/04/06 09:38:57;;;;;;;;;8.00;5.50;;;;;23.15;33.34;101058.81;5074160;27;45406;-67
2023/04/06 09:41:27;;;;;;;;;7.75;6.25;;;;;23.17;32.92;101061.38;5072769;27;45480;-65
2023/04/06 09:44:03;;;;;;;;;7.25;6.00;;;;;23.14;33.31;101062.44;5068786;27;46476;-66
2023/04/06 09:46:31;;;;;;;;;4.25;4.25;;;;;23.16;33.02;101054.31;5100523;27;45708;-65
2023/04/06 09:48:57;;;;;;;;;5.25;4.25;;;;;23.16;33.21;101049.84;5069393;27;45473;-66
2023/04/06 09:51:25;;;;;;;;;6.00;4.50;;;;;23.15;33.31;101049.97;5063446;27;61028;-66
2023/04/06 09:53:53;;;;;;;;;5.75;5.75;;;;;23.15;33.03;101050.81;5056683;27;47332;-68
2023/04/06 09:56:25;;;;;;;;;7.00;4.00;;;;;23.18;33.06;101057.72;5086162;27;45677;-71
2023/04/06 09:58:56;;;;;;;;;4.00;4.00;;;;;23.19;33.56;101064.78;5070359;27;45523;-66
2023/04/06 10:01:23;;;;;;;;;2.25;2.25;;;;;23.19;33.63;101070.97;5069723;27;45422;-66
2023/04/06 10:04:00;;;;;;;;;6.75;4.25;;;;;23.21;33.46;101074.34;5075153;27;47071;-67
2023/04/06 10:06:28;;;;;;;;;4.00;4.00;;;;;23.22;33.54;101073.41;5091557;27;45297;-66
2023/04/06 10:08:56;;;;;;;;;5.50;4.00;;;;;23.17;33.40;101067.56;5059588;27;45284;-66
2023/04/06 10:11:21;;;;;;;;;5.75;2.75;;;;;23.23;33.41;101074.25;5074565;27;45521;-66
2023/04/06 10:13:48;;;;;;;;;4.50;3.00;;;;;23.23;33.74;101069.78;5065002;28;45505;-66
2023/04/06 10:16:14;;;;;;;;;3.00;3.00;;;;;23.24;33.10;101067.94;5052749;28;45265;-65
2023/04/06 10:18:45;;;;;;;;;4.25;2.00;;;;;23.24;33.58;101065.28;5054985;27;45539;-65
2023/04/06 10:21:13;;;;;;;;;6.00;3.50;;;;;23.23;33.31;101059.09;5057705;27;45305;-66
2023/04/06 10:23:44;;;;;;;;;4.50;3.50;;;;;23.22;33.19;101059.22;5070346;27;45655;-65
2023/04/06 10:26:14;;;;;;;;;6.25;3.25;;;;;23.24;33.35;101066.13;5094385;27;45334;-65
2023/04/06 10:28:42;;;;;;;;;4.75;3.75;;;;;23.26;33.44;101071.34;5067040;28;45331;-65
2023/04/06 10:31:07;;;;;;;;;4.50;4.50;;;;;23.23;33.48;101069.78;5078676;27;45267;-66
2023/04/06 10:33:33;;;;;;;;;4.00;3.75;;;;;23.24;33.52;101068.78;5068163;28;46305;-67
2023/04/06 10:36:12;;;;;;;;;4.75;3.75;;;;;23.26;33.28;101076.69;5063426;27;45395;-65
2023/04/06 10:38:38;;;;;;;;;2.50;2.50;;;;;23.25;33.55;101070.50;5062324;27;45467;-67
2023/04/06 10:41:05;;;;;;;;;3.50;2.50;;;;;23.23;33.45;101082.25;5067417;27;45362;-67
2023/04/06 10:43:35;;;;;;;;;5.00;3.50;;;;;23.25;33.57;101080.34;5058014;27;46703;-67
2023/04/06 10:46:01;;;;;;;;;1.75;1.25;;;;;23.23;33.29;101077.78;5060130;27;45723;-67
2023/04/06 10:48:40;;;;;;;;;3.25;3.25;;;;;23.24;33.41;101082.16;5097304;27;45453;-66
2023/04/06 10:51:16;;;;;;;;;2.00;2.00;;;;;23.25;33.21;101075.00;5078715;28;45506;-67
2023/04/06 10:53:43;;;;;;;;;4.00;2.00;;;;;23.23;33.61;101072.44;5074835;27;45613;-64
2023/04/06 10:56:16;;;;;;;;;13.25;9.25;;;;;23.23;33.35;101079.59;5075610;27;45505;-66
2023/04/06 10:58:49;;;;;;;;;26.75;24.00;;;;;23.12;33.31;101078.59;5089582;27;45275;-65
2023/04/06 11:01:16;;;;;;;;;44.75;36.50;;;;;23.03;33.69;101084.56;5081279;27;45400;-64
2023/04/06 11:03:49;;;;;;;;;56.25;44.00;;;;;22.89;33.48;101079.41;5067419;28;47210;-66
2023/04/06 11:06:33;;;;;;;;;68.25;54.75;;;;;22.78;33.45;101076.69;5059103;28;45896;-68
2023/04/06 11:08:59;;;;;;;;;94.75;87.75;;;;;22.69;33.82;101067.53;5058607;27;45317;-68
2023/04/06 11:11:26;;;;;;;;;114.50;101.75;;;;;22.66;33.64;101073.06;5069732;27;45332;-65
2023/04/06 11:13:56;;;;;;;;;152.00;132.75;;;;;22.64;33.89;101070.50;5064881;28;47000;-66
2023/04/06 11:16:24;;;;;;;;;157.75;136.00;;;;;22.64;34.25;101072.34;5058550;27;45775;-64
2023/04/06 11:18:56;;;;;;;;;192.50;160.75;;;;;22.66;33.83;101067.75;5062279;27;45393;-64